• Join FlightAware (Why Join?)
  • Login
  • US Flag 
04:35PM EST


 

Airport Tracker/Info


-or-


 

Live Flight TrackerFlight Track Log ✈ TAM3859 ✈ 27-Jul-2013 ✈ SBCT / CWB - SBPA / POA

Flight Track Log - Related Links

Times and Time Zones

All times are in EDT time to prevent confusion due to time zone crossing. See the TAM3859 flight status page for this flight to view local times or setup timezone preferences in your user account.

Time Position Orientation Groundspeed Altitude Reporting Facility
EDT Latitude Longitude Course Direction KTS MPH feet Rate Location/Type
11:54AM -25.5310 -49.1760 225° Southwest  Level FlightAware
11:55AM -25.5320 -49.1760 180° South 251 Level FlightAware
11:55AM -25.5310 -49.1760 360° North 261 Level FlightAware
11:56AM -25.5320 -49.1760 180° South 271 Level FlightAware
11:59AM -25.7840 -49.2842 201° Southwest  Level Estimated
11:59AM -25.5310 -49.1760 201° Southwest 12 14  Level FlightAware
11:59AM -25.5310 -49.1750 90° East 9 10 405 Level FlightAware
12:01PM -25.5320 -49.1750 201° Southwest 28 32 446 Level FlightAware
12:02PM -25.7465 -49.2675 201° Southwest  Level Estimated
12:02PM -25.5330 -49.1730 119° Southeast 26 30  Level FlightAware
12:02PM -25.5340 -49.1720 138° Southeast 26 30 738 Level FlightAware
12:03PM -25.5350 -49.1710 138° Southeast 31 36 833 Level FlightAware
12:03PM -25.5360 -49.1690 119° Southeast 17 20 957 Level FlightAware
12:05PM -25.5360 -49.1670 90° East 20 23 1,125 Level FlightAware
12:06PM -25.5330 -49.1700 318° Northwest 84 97 2,143 Level FlightAware
12:06PM -25.5210 -49.1840 314° West 171 197 3,000 4,138 Climbing FlightAware
12:07PM -25.5030 -49.2050 314° West 190 219 4,000 2,038 Climbing FlightAware
12:07PM -25.4880 -49.2210 316° Northwest 196 226 4,800 2,143 Climbing FlightAware
12:08PM -25.4680 -49.2450 313° West 193 222 6,000 1,867 Climbing FlightAware
12:08PM -25.4650 -49.2570 285° West 206 237 6,200 750 Climbing FlightAware
12:08PM -25.4760 -49.2850 246° West 249 287 6,500 1,091 Climbing FlightAware
12:08PM -25.4950 -49.2940 203° Southwest 268 308 7,000 2,195 Climbing FlightAware
12:09PM -25.5250 -49.3010 192° South 276 318 8,000 2,455 Climbing FlightAware
12:09PM -25.5490 -49.3060 191° South 281 323 8,800 2,459 Climbing FlightAware
12:10PM -25.6000 -49.3190 193° South 284 327 10,500 1,471 Climbing FlightAware
12:11PM -25.6770 -49.3410 194° South 341 392 11,300 1,263 Climbing FlightAware
12:11PM -25.7300 -49.3550 193° South 350 403 12,500 2,475 Climbing FlightAware
12:12PM -25.8180 -49.3780 193° South 359 413 14,600 2,400 Climbing FlightAware
12:13PM -25.8910 -49.3980 194° South 361 415 16,100 1,765 Climbing FlightAware
12:14PM -25.9570 -49.4160 194° South 374 430 17,100 1,816 Climbing FlightAware
12:14PM -26.0160 -49.4320 194° South 372 428 18,400 1,724 Climbing FlightAware
12:15PM -26.1040 -49.4550 193° South 379 436 19,600 1,563 Climbing FlightAware
12:16PM -26.1790 -49.4760 194° South 378 435 20,900 1,694 Climbing FlightAware
12:16PM -26.2490 -49.4950 194° South 381 438 22,000 1,575 Climbing FlightAware
12:17PM -26.3160 -49.5130 194° South 383 441 23,000 1,350 Climbing FlightAware
12:18PM -26.3880 -49.5320 193° South 391 450 23,800 1,200 Climbing FlightAware
12:19PM -26.4660 -49.5540 194° South 397 457 24,700 1,129 Climbing FlightAware
12:19PM -26.5380 -49.5730 193° South 402 463 25,400 1,050 Climbing FlightAware
12:20PM -26.6110 -49.5930 194° South 411 473 26,100 750 Climbing FlightAware
12:21PM -26.7100 -49.6200 194° South 416 479 26,600 1,020 Climbing FlightAware
12:22PM -26.8000 -49.6490 196° South 424 488 27,800 1,281 Climbing FlightAware
12:22PM -26.8860 -49.6820 199° South 429 494 28,500 988 Climbing FlightAware
12:23PM -26.9610 -49.7110 199° South 433 498 29,200 1,271 Climbing FlightAware
12:24PM -27.0470 -49.7440 199° South 427 491 30,300 2,047 Climbing FlightAware
12:24PM -27.1190 -49.7710 198° South 397 457 32,100 2,000 Climbing FlightAware
12:25PM -27.1800 -49.7950 199° South 396 456 32,800 1,040 Climbing FlightAware
12:26PM -27.2490 -49.8220 199° South 396 456 33,400 918 Climbing FlightAware
12:26PM -27.3270 -49.8520 199° South 397 457 34,100 918 Climbing FlightAware
12:27PM -27.3970 -49.8790 199° South 395 455 34,700 750 Climbing FlightAware
12:28PM -27.4660 -49.9060 199° South 400 460 35,100 635 Climbing FlightAware
12:28PM -27.5450 -49.9370 199° South 400 460 35,600 558 Climbing FlightAware
12:29PM -27.6160 -49.9640 199° South 405 466 35,900 300 Climbing FlightAware
12:30PM -27.6850 -49.9910 199° South 404 465 36,000 81 Climbing FlightAware
12:30PM -27.7450 -50.0150 199° South 405 466 36,000  Level FlightAware
12:31PM -27.8180 -50.0430 199° South 405 466 36,000  Level FlightAware
12:32PM -27.9030 -50.0770 199° South 405 466 36,000  Level FlightAware
12:33PM -28.0050 -50.1170 199° South 405 466 36,000  Level FlightAware
12:33PM -28.0620 -50.1390 199° South 406 467 36,000  Level FlightAware
12:34PM -28.1310 -50.1660 199° South 408 470 36,000  Level FlightAware
12:35PM -28.2090 -50.1970 199° South 408 470 36,000  Level FlightAware
12:36PM -28.2850 -50.2270 199° South 407 468 36,000  Level FlightAware
12:36PM -28.3550 -50.2550 199° South 407 468 36,000  Level FlightAware
12:37PM -28.4300 -50.2840 199° South 406 467 36,000 -240 Level FlightAware
12:38PM -28.5320 -50.3250 199° South 404 465 35,600 -947 Descending FlightAware
12:39PM -28.6020 -50.3530 199° South 397 457 34,500 -1,875 Descending FlightAware
12:39PM -28.6700 -50.3800 199° South 387 445 33,100 -2,160 Descending FlightAware
12:39PM -28.6890 -50.3870 198° South 386 444 32,700 -2,100 Descending FlightAware
12:40PM -28.7690 -50.4210 200° South 378 435 31,000 -2,021 Descending FlightAware
12:41PM -28.8380 -50.4610 207° Southwest 366 421 29,500 -1,976 Descending FlightAware
12:42PM -28.9000 -50.4960 206° Southwest 360 414 28,200 -2,000 Descending FlightAware
12:42PM -28.9500 -50.5250 207° Southwest 356 410 27,000 -2,080 Descending FlightAware
12:43PM -29.0100 -50.5590 206° Southwest 353 406 25,600 -2,025 Descending FlightAware
12:44PM -29.0670 -50.5920 207° Southwest 350 403 24,300 -2,000 Descending FlightAware
12:44PM -29.1150 -50.6250 211° Southwest 339 390 23,100 -1,964 Descending FlightAware
12:44PM -29.1350 -50.6550 233° Southwest 330 380 22,500 -1,800 Descending FlightAware
12:45PM -29.1670 -50.7130 238° Southwest 324 373 21,300 -1,725 Descending FlightAware
12:46PM -29.1980 -50.7690 238° Southwest 322 371 20,200 -1,650 Descending FlightAware
12:46PM -29.2310 -50.8270 237° Southwest 319 367 19,100 -1,674 Descending FlightAware
12:47PM -29.2670 -50.8920 238° Southwest 318 366 17,800 -1,694 Descending FlightAware
12:48PM -29.2990 -50.9480 237° Southwest 318 366 16,700 -1,671 Descending FlightAware
12:49PM -29.3310 -51.0040 237° Southwest 320 368 15,600 -1,650 Descending FlightAware
12:49PM -29.3630 -51.0610 237° Southwest 318 366 14,500 -1,650 Descending FlightAware
12:50PM -29.3950 -51.1180 237° Southwest 317 365 13,400 -1,575 Descending FlightAware
12:51PM -29.4260 -51.1750 238° Southwest 314 361 12,400 -1,624 Descending FlightAware
12:51PM -29.4620 -51.2390 237° Southwest 312 359 11,100 -1,700 Descending FlightAware
12:52PM -29.4760 -51.2580 230° Southwest 312 359 10,700 -1,400 Descending FlightAware
12:52PM -29.4940 -51.2680 206° Southwest 313 360 10,400 -982 Descending FlightAware
12:52PM -29.5500 -51.2820 192° South 290 334 9,800 -1,108 Descending FlightAware
12:53PM -29.5810 -51.2900 193° South 287 330 9,200 -1,467 Descending FlightAware
12:53PM -29.6090 -51.2980 194° South 283 326 8,700 -1,500 Descending FlightAware
12:54PM -29.6330 -51.3050 194° South 281 323 8,200 -1,543 Descending FlightAware
12:54PM -29.6520 -51.3100 193° South 278 320 7,800 -1,543 Descending FlightAware
12:54PM -29.6770 -51.3160 192° South 275 316 7,300 -1,500 Descending FlightAware
12:54PM -29.7020 -51.3230 194° South 274 315 6,800 -1,560 Descending FlightAware
12:55PM -29.7380 -51.3330 194° South 273 314 6,000 -1,636 Descending FlightAware
12:55PM -29.7700 -51.3410 192° South 272 313 5,300 -1,800 Descending FlightAware
12:56PM -29.8000 -51.3490 193° South 274 315 4,500 -1,800 Descending FlightAware
12:56PM -29.8180 -51.3540 194° South 274 315 4,100 -1,600 Descending FlightAware
12:57PM -29.8560 -51.3640 193° South 272 313 3,300 -1,400 Descending FlightAware
12:57PM -29.8920 -51.3740 194° South 262 302 2,700 -1,385 Descending FlightAware
12:58PM -29.9340 -51.3860 194° South 260 299 1,800 -923 Descending FlightAware
12:58PM -29.9660 -51.3800 171° South 228 262 1,700 -109 Descending FlightAware
12:59PM -29.9840 -51.3590 135° Southeast 202 232 1,700 133 Level FlightAware
12:59PM -29.9910 -51.3420 115° Southeast 186 214 1,800  Climbing FlightAware
12:59PM -29.9910 -51.3270 90° East 168 193 1,700 -118 Descending FlightAware
01:00PM -29.9920 -51.2990 92° East 149 171 1,700 -218 Level FlightAware
01:00PM -29.9920 -51.2820 90° East 150 173 1,500 -735 Descending FlightAware
01:01PM -29.9930 -51.2580 93° East 148 170 1,100 -764 Descending FlightAware
01:01PM -29.9930 -51.2420 90° East 146 168 800 -764 Descending FlightAware
01:01PM -29.9940 -51.2190 93° East 149 171 400 -800 Descending FlightAware
01:02PM -29.9940 -51.1850 90° East 151 174 -828 Descending FlightAware
01:02PM -29.9950 -51.1670 94° East 84 97  Level FlightAware
01:03PM -29.9930 -51.1620 65° Northeast 16 18  Level FlightAware
01:04PM -29.9930 -51.1640 270° West 17 20  Level FlightAware
01:04PM -29.9930 -51.1680 270° West 23 26  Level FlightAware
01:05PM -29.9930 -51.1710 270° West 21 24  Level FlightAware
01:05PM -29.9930 -51.1730 270° West 20 23  Level FlightAware
01:05PM -29.9930 -51.1760 270° West 19 22  Level FlightAware
01:06PM -29.9930 -51.1770 270° West 31 36  Level FlightAware
01:06PM -29.9920 -51.1770 360° North 29 33  Level FlightAware
01:06PM -29.9910 -51.1770 360° North 11 13  Level FlightAware
01:09PM -29.9944 -51.1714 125° Southeast  Level Estimated
01:10PM -29.9944 -51.1714 41° Northeast  Level Estimated
01:11PM -29.9944 -51.1714 41° Northeast  Level Estimated
01:12PM -29.9944 -51.1714 41° Northeast  Level Estimated
01:13PM -29.9944 -51.1714 41° Northeast  Level Estimated
01:14PM -29.9944 -51.1714 41° Northeast  Level Estimated
01:15PM -29.9944 -51.1714 41° Northeast  Level Estimated
01:16PM -29.9944 -51.1714 41° Northeast  Level Estimated
01:17PM -29.9944 -51.1714 41° Northeast  Level Estimated